Time;durP1;ratioP1;P1;durP2;ratioP2;P2;SDS_P1;SDS_P2;PMS_P1;PMS_P2;Temp;Humidity;BMP_temperature;BMP_pressure;BME280_temperature;BME280_humidity;BME280_pressure;Samples;Min_cycle;Max_cycle;Signal;HPM_P1;HPM_P2
2021/11/02 00:02:03;;;;;;;40.42;27.63;;;10.30;82.50;;;;;;5093188;28;20131;-55
2021/11/02 00:04:29;;;;;;;35.97;26.60;;;10.30;83.20;;;;;;5093548;28;20051;-54
2021/11/02 00:06:55;;;;;;;33.67;25.10;;;10.30;82.60;;;;;;5093060;28;20482;-52
2021/11/02 00:09:23;;;;;;;37.55;27.17;;;10.20;82.70;;;;;;5093577;28;20020;-52
2021/11/02 00:11:49;;;;;;;35.78;25.75;;;10.20;83.00;;;;;;5091586;28;20055;-55
2021/11/02 00:14:15;;;;;;;35.63;25.23;;;10.20;83.80;;;;;;5078037;28;20093;-52
2021/11/02 00:16:41;;;;;;;38.08;26.85;;;10.20;83.10;;;;;;5093059;28;20044;-55
2021/11/02 00:19:08;;;;;;;35.83;25.02;;;10.20;83.20;;;;;;5093256;28;20138;-54
2021/11/02 00:21:39;;;;;;;37.10;26.60;;;10.20;83.40;;;;;;5092580;28;20065;-55
2021/11/02 00:24:26;;;;;;;35.72;26.35;;;10.20;83.20;;;;;;5097148;28;20475;-55
2021/11/02 00:26:52;;;;;;;43.45;27.27;;;10.10;83.20;;;;;;5105997;28;20025;-54
2021/11/02 00:29:17;;;;;;;40.63;27.35;;;10.10;83.20;;;;;;5093176;28;20024;-52
2021/11/02 00:31:43;;;;;;;38.65;26.65;;;10.10;83.40;;;;;;5093047;28;20073;-55
2021/11/02 00:34:09;;;;;;;36.00;25.40;;;10.10;83.40;;;;;;5092752;28;20032;-53
2021/11/02 00:36:35;;;;;;;36.97;26.50;;;10.00;83.50;;;;;;5092566;28;20040;-54
2021/11/02 00:39:01;;;;;;;35.40;25.92;;;10.00;83.80;;;;;;5093171;28;20077;-54
2021/11/02 00:41:26;;;;;;;35.10;24.95;;;10.10;83.80;;;;;;5093187;28;20024;-55
2021/11/02 00:43:54;;;;;;;35.92;26.30;;;10.10;83.90;;;;;;5092778;28;20035;-52
2021/11/02 00:46:26;;;;;;;36.20;25.40;;;10.10;84.10;;;;;;5074504;28;20479;-54
2021/11/02 00:48:52;;;;;;;36.90;26.80;;;10.10;84.00;;;;;;5082571;28;20447;-52
2021/11/02 00:51:17;;;;;;;33.03;24.67;;;10.10;84.20;;;;;;5092980;28;20068;-54
2021/11/02 00:53:43;;;;;;;39.08;26.23;;;10.00;84.00;;;;;;5090233;28;20123;-52
2021/11/02 00:56:09;;;;;;;37.83;26.92;;;10.00;84.00;;;;;;5092949;28;20024;-55
2021/11/02 00:58:34;;;;;;;36.42;25.98;;;10.00;84.10;;;;;;5092809;28;20168;-53
2021/11/02 01:01:00;;;;;;;36.13;25.70;;;9.90;84.20;;;;;;5092391;28;20025;-55
2021/11/02 01:03:26;;;;;;;36.70;26.02;;;9.90;84.40;;;;;;5093262;28;20032;-53
2021/11/02 01:05:51;;;;;;;37.20;26.90;;;9.90;84.30;;;;;;5096948;28;20433;-55
2021/11/02 01:08:17;;;;;;;39.78;26.92;;;9.90;84.40;;;;;;5096916;28;20054;-55
2021/11/02 01:10:47;;;;;;;35.88;26.85;;;9.90;84.60;;;;;;5096116;28;20089;-54
2021/11/02 01:13:13;;;;;;;36.80;25.83;;;9.90;84.50;;;;;;5096318;28;20024;-54
2021/11/02 01:15:38;;;;;;;36.78;27.42;;;9.90;84.60;;;;;;5096784;28;20052;-53
2021/11/02 01:18:04;;;;;;;38.22;27.13;;;9.90;84.90;;;;;;5096657;28;20390;-53
2021/11/02 01:20:30;;;;;;;39.75;26.73;;;9.80;84.90;;;;;;5096615;28;20047;-55
2021/11/02 01:22:56;;;;;;;39.42;25.90;;;9.80;84.80;;;;;;5096075;28;20020;-55
2021/11/02 01:25:22;;;;;;;39.20;26.20;;;9.80;85.10;;;;;;5111516;28;20390;-52
2021/11/02 01:27:49;;;;;;;34.15;25.27;;;9.80;85.20;;;;;;5097128;28;20107;-52
2021/11/02 01:30:15;;;;;;;30.60;23.77;;;9.80;85.30;;;;;;5080945;28;20024;-52
2021/11/02 01:32:42;;;;;;;34.17;25.70;;;9.80;85.50;;;;;;5096129;28;20077;-52
2021/11/02 01:35:08;;;;;;;36.42;26.13;;;9.90;85.60;;;;;;5096447;28;20028;-52
2021/11/02 01:37:38;;;;;;;34.58;24.40;;;9.90;85.70;;;;;;5096652;28;20024;-55
2021/11/02 01:40:06;;;;;;;35.58;24.88;;;10.00;85.60;;;;;;5096239;28;20028;-53
2021/11/02 01:42:31;;;;;;;31.08;23.98;;;10.10;85.50;;;;;;5095580;28;20058;-56
2021/11/02 01:44:59;;;;;;;32.58;25.27;;;10.10;85.30;;;;;;5096165;28;20024;-55
2021/11/02 01:47:25;;;;;;;35.38;25.15;;;10.20;85.20;;;;;;5096112;28;20047;-55
2021/11/02 01:49:51;;;;;;;34.05;25.05;;;10.20;84.90;;;;;;5096060;28;20020;-54
2021/11/02 01:52:16;;;;;;;36.42;23.60;;;10.20;84.80;;;;;;5083651;28;20039;-53
2021/11/02 01:54:43;;;;;;;34.50;25.75;;;10.30;84.60;;;;;;5076081;28;20083;-54
2021/11/02 01:57:08;;;;;;;38.03;26.95;;;10.30;84.60;;;;;;5087024;28;20024;-55
2021/11/02 01:59:36;;;;;;;30.90;22.77;;;10.30;84.40;;;;;;5088859;28;20050;-55
2021/11/02 02:02:28;;;;;;;31.02;21.75;;;10.30;84.40;;;;;;5095777;28;20068;-55
2021/11/02 02:05:27;;;;;;;30.92;22.13;;;10.40;84.00;;;;;;5064835;28;20068;-53
2021/11/02 02:08:16;;;;;;;27.33;20.80;;;10.40;83.90;;;;;;5095738;28;20023;-55
2021/11/02 02:11:01;;;;;;;30.92;22.00;;;10.40;83.80;;;;;;5095822;28;20020;-52
2021/11/02 02:13:50;;;;;;;28.33;20.05;;;10.30;83.80;;;;;;5081562;28;20073;-55
2021/11/02 02:16:44;;;;;;;28.33;20.40;;;10.40;84.00;;;;;;5082172;28;20081;-53
2021/11/02 02:19:28;;;;;;;28.65;20.58;;;10.30;83.70;;;;;;5086213;28;20391;-55
2021/11/02 02:22:29;;;;;;;30.42;21.33;;;10.30;83.60;;;;;;5095028;28;20426;-55
2021/11/02 02:25:32;;;;;;;28.70;20.40;;;10.30;83.50;;;;;;5091828;28;20497;-55
2021/11/02 02:28:13;;;;;;;28.77;21.48;;;10.30;83.60;;;;;;5075384;28;20021;-54
2021/11/02 02:30:52;;;;;;;26.40;19.33;;;10.30;83.70;;;;;;5080127;28;20049;-53
2021/11/02 02:33:20;;;;;;;25.17;18.13;;;10.30;83.80;;;;;;5109789;28;20020;-53
2021/11/02 02:35:46;;;;;;;25.75;19.17;;;10.30;83.80;;;;;;5083488;28;20023;-55
2021/11/02 02:38:14;;;;;;;23.35;17.17;;;10.30;83.80;;;;;;5115832;28;20386;-52
2021/11/02 02:40:42;;;;;;;24.98;18.15;;;10.30;83.70;;;;;;5115649;28;20028;-55
2021/11/02 02:43:08;;;;;;;25.58;16.90;;;10.30;83.80;;;;;;5092751;28;20033;-53
2021/11/02 02:45:35;;;;;;;26.70;19.00;;;10.30;83.60;;;;;;5074781;28;20021;-55
2021/11/02 02:48:03;;;;;;;29.33;20.05;;;10.30;83.60;;;;;;5085601;28;20031;-54
2021/11/02 02:50:30;;;;;;;26.33;18.77;;;10.30;83.60;;;;;;5094475;28;20085;-54
2021/11/02 02:52:57;;;;;;;26.05;18.73;;;10.30;83.60;;;;;;5094457;28;20024;-55
2021/11/02 02:55:23;;;;;;;26.33;19.55;;;10.30;83.60;;;;;;5094831;28;20036;-56
2021/11/02 02:57:50;;;;;;;26.10;17.77;;;10.30;83.70;;;;;;5094865;28;20024;-55
2021/11/02 03:00:17;;;;;;;24.88;18.55;;;10.30;83.60;;;;;;5095101;28;20028;-52
2021/11/02 03:02:44;;;;;;;30.20;19.95;;;10.30;83.60;;;;;;5094393;28;20107;-55
2021/11/02 03:05:12;;;;;;;23.88;16.88;;;10.30;83.60;;;;;;5094107;28;20467;-54
2021/11/02 03:07:38;;;;;;;22.35;16.60;;;10.30;83.60;;;;;;5114363;28;20015;-54
2021/11/02 03:10:06;;;;;;;27.40;20.20;;;10.30;83.50;;;;;;5113554;28;20360;-53
2021/11/02 03:12:35;;;;;;;24.02;17.90;;;10.30;83.40;;;;;;5087075;28;20040;-53
2021/11/02 03:51:42;;;;;;;23.08;15.80;;;10.20;83.90;;;;;;5093860;28;20097;-54
2021/11/02 05:59:42;;;;;;;21.35;14.35;;;10.40;85.70;;;;;;5095609;28;20028;-54
2021/11/02 06:07:25;;;;;;;19.48;13.30;;;10.50;85.70;;;;;;5096131;28;20115;-55
2021/11/02 06:10:00;;;;;;;16.88;11.48;;;10.50;85.60;;;;;;5096111;28;20378;-53
2021/11/02 06:29:23;;;;;;;18.00;11.43;;;10.40;85.50;;;;;;5093047;28;20023;-58
2021/11/02 06:32:06;;;;;;;15.02;11.50;;;10.40;85.50;;;;;;5082014;28;20030;-54
2021/11/02 06:48:27;;;;;;;12.75;8.98;;;10.50;86.20;;;;;;5082931;28;20111;-55
2021/11/02 07:19:42;;;;;;;16.10;11.05;;;10.70;86.40;;;;;;5084548;28;20032;-53
2021/11/02 07:30:21;;;;;;;21.02;12.45;;;10.70;86.70;;;;;;5086286;28;20012;-55
2021/11/02 08:45:15;;;;;;;17.15;10.70;;;11.20;86.60;;;;;;5071548;28;20515;-55
2021/11/02 08:47:44;;;;;;;19.45;11.15;;;11.30;86.50;;;;;;5064245;28;20057;-58
2021/11/02 08:50:12;;;;;;;17.05;10.68;;;11.20;86.50;;;;;;5048962;28;20050;-55
2021/11/02 08:52:39;;;;;;;18.58;12.55;;;11.30;86.60;;;;;;5075461;28;20705;-55
2021/11/02 08:55:09;;;;;;;15.73;10.18;;;11.30;86.80;;;;;;5055123;28;20036;-55
2021/11/02 08:57:35;;;;;;;16.90;10.50;;;11.30;86.80;;;;;;5068303;28;20032;-54
2021/11/02 09:00:02;;;;;;;15.23;9.25;;;11.30;86.90;;;;;;5065977;28;20038;-55
2021/11/02 09:02:33;;;;;;;16.50;10.48;;;11.30;86.90;;;;;;5065729;28;20039;-55
2021/11/02 09:05:14;;;;;;;15.90;9.88;;;11.30;86.80;;;;;;5064317;28;20065;-55
2021/11/02 09:07:44;;;;;;;17.80;12.63;;;11.30;86.70;;;;;;5060452;28;23027;-56
2021/11/02 09:10:15;;;;;;;20.63;13.75;;;11.40;86.90;;;;;;5069535;28;20035;-52
2021/11/02 09:12:43;;;;;;;17.73;10.52;;;11.40;86.90;;;;;;5062955;28;20032;-55
2021/11/02 09:15:10;;;;;;;22.25;13.55;;;11.50;87.00;;;;;;5059363;28;20842;-54
2021/11/02 09:17:43;;;;;;;19.70;11.45;;;11.50;86.80;;;;;;5062280;28;20040;-55
2021/11/02 09:20:10;;;;;;;20.80;11.60;;;11.50;86.80;;;;;;5058484;28;20047;-52
2021/11/02 09:22:36;;;;;;;16.05;10.10;;;11.60;86.90;;;;;;5066552;28;20032;-58
2021/11/02 09:25:03;;;;;;;15.75;10.65;;;11.60;86.90;;;;;;5077434;28;20021;-55
2021/11/02 09:27:29;;;;;;;14.10;9.77;;;11.60;86.80;;;;;;5082744;28;20074;-55
2021/11/02 09:29:56;;;;;;;16.73;11.45;;;11.70;86.90;;;;;;5079237;28;20036;-56
2021/11/02 09:32:24;;;;;;;16.50;10.60;;;11.70;86.80;;;;;;5071873;28;20027;-56
2021/11/02 09:34:51;;;;;;;15.60;11.15;;;11.70;86.70;;;;;;5071332;28;20442;-56
2021/11/02 09:37:30;;;;;;;21.45;12.32;;;11.70;86.70;;;;;;5068970;28;20180;-55
2021/11/02 09:40:06;;;;;;;17.67;11.60;;;11.80;86.60;;;;;;5063815;28;20036;-56
2021/11/02 09:42:42;;;;;;;17.58;12.05;;;11.80;86.50;;;;;;5060740;28;20131;-55
2021/11/02 09:45:24;;;;;;;17.50;10.90;;;11.80;86.50;;;;;;5068217;28;20491;-55
2021/11/02 09:48:02;;;;;;;20.13;11.68;;;11.80;86.50;;;;;;5062384;28;20046;-56
2021/11/02 09:51:06;;;;;;;18.02;10.48;;;11.90;86.60;;;;;;5063266;28;20028;-58
2021/11/02 09:53:49;;;;;;;18.42;13.00;;;11.90;86.30;;;;;;5034010;28;20046;-54
2021/11/02 09:56:39;;;;;;;17.73;10.43;;;11.90;86.20;;;;;;5063199;28;20033;-53
2021/11/02 09:59:20;;;;;;;17.10;12.05;;;11.90;86.00;;;;;;5063957;28;20028;-55
2021/11/02 10:02:02;;;;;;;20.20;11.73;;;11.90;86.20;;;;;;5063485;28;20032;-56
2021/11/02 10:04:58;;;;;;;18.33;11.88;;;11.90;86.20;;;;;;5062152;28;20032;-58
2021/11/02 10:07:36;;;;;;;15.77;10.73;;;11.90;86.20;;;;;;5073155;28;20023;-56
2021/11/02 10:10:15;;;;;;;19.92;13.65;;;11.90;86.20;;;;;;5075730;28;20097;-56
2021/11/02 10:13:04;;;;;;;15.38;10.65;;;11.90;86.30;;;;;;5073973;28;20772;-55
2021/11/02 10:15:59;;;;;;;18.38;11.68;;;12.00;86.40;;;;;;5070689;28;20498;-55
2021/11/02 10:19:07;;;;;;;17.98;11.48;;;12.00;86.40;;;;;;5072667;28;22160;-56
2021/11/02 10:21:50;;;;;;;18.90;12.05;;;12.00;86.40;;;;;;5061629;28;20122;-55
2021/11/02 10:24:56;;;;;;;20.70;12.27;;;12.00;86.50;;;;;;5067778;28;20024;-56
2021/11/02 10:27:42;;;;;;;19.67;11.25;;;12.00;86.40;;;;;;5064594;28;20564;-55
2021/11/02 10:30:29;;;;;;;22.88;15.25;;;12.00;86.40;;;;;;5066746;28;20031;-56
2021/11/02 10:33:00;;;;;;;25.65;13.85;;;12.00;86.40;;;;;;5064867;28;20415;-55
2021/11/02 10:35:35;;;;;;;19.85;12.70;;;12.00;86.60;;;;;;5076545;28;20046;-54
2021/11/02 10:38:11;;;;;;;21.55;13.88;;;11.90;86.70;;;;;;5072858;28;23345;-55
2021/11/02 10:40:49;;;;;;;22.23;14.63;;;11.90;86.90;;;;;;5063744;28;20047;-56
2021/11/02 10:43:41;;;;;;;27.65;15.63;;;11.90;87.10;;;;;;5067070;28;20285;-53
2021/11/02 10:46:12;;;;;;;23.10;13.82;;;12.00;87.10;;;;;;5066762;28;20048;-54
2021/11/02 10:48:42;;;;;;;26.45;15.85;;;12.00;87.20;;;;;;5060209;28;20043;-56
2021/11/02 10:51:22;;;;;;;;;;;12.00;87.20;;;;;;5070190;28;20075;-56
2021/11/02 10:54:08;;;;;;;24.75;16.08;;;11.90;87.00;;;;;;5064797;28;19950;-56
2021/11/02 10:56:33;;;;;;;27.23;16.02;;;11.90;87.10;;;;;;5068785;28;20063;-53
2021/11/02 10:59:01;;;;;;;31.92;18.02;;;11.90;87.40;;;;;;5067212;28;20472;-53
2021/11/02 11:01:28;;;;;;;21.48;13.23;;;11.90;87.40;;;;;;5069244;28;20106;-53
2021/11/02 11:03:59;;;;;;;22.45;14.80;;;12.00;87.50;;;;;;5068557;28;20048;-52
2021/11/02 11:06:26;;;;;;;;;;;12.00;87.70;;;;;;5063714;28;20029;-56
2021/11/02 11:08:55;;;;;;;23.40;13.68;;;12.00;87.50;;;;;;5065795;28;19919;-56
2021/11/02 11:11:26;;;;;;;26.70;16.10;;;12.00;87.60;;;;;;5063260;28;20032;-55
2021/11/02 11:13:58;;;;;;;25.63;14.55;;;12.00;87.60;;;;;;5068318;28;20036;-55
2021/11/02 11:16:27;;;;;;;22.60;14.48;;;12.10;87.90;;;;;;5079764;28;20050;-55
2021/11/02 11:19:13;;;;;;;22.20;14.30;;;12.10;87.80;;;;;;5071341;28;20101;-56
2021/11/02 11:21:39;;;;;;;25.55;14.80;;;12.10;87.70;;;;;;5074814;28;20035;-55
2021/11/02 11:24:23;;;;;;;19.90;12.80;;;12.10;87.70;;;;;;5076899;28;20028;-56
2021/11/02 11:26:51;;;;;;;26.48;16.35;;;12.10;87.60;;;;;;5072907;28;20024;-55
2021/11/02 11:29:24;;;;;;;23.00;13.77;;;12.10;87.60;;;;;;5071403;28;20064;-55
2021/11/02 11:31:53;;;;;;;24.05;14.90;;;12.10;87.70;;;;;;5069557;28;20024;-55
2021/11/02 11:34:23;;;;;;;21.85;16.15;;;12.10;87.60;;;;;;5076402;28;20036;-55
2021/11/02 11:36:50;;;;;;;26.05;14.80;;;12.10;87.70;;;;;;5076174;28;20077;-56
2021/11/02 11:39:20;;;;;;;19.65;13.25;;;12.10;87.80;;;;;;5078825;28;20122;-55
2021/11/02 11:41:52;;;;;;;21.90;14.88;;;12.10;88.00;;;;;;5076196;28;20039;-55
2021/11/02 11:44:20;;;;;;;20.20;12.18;;;12.10;88.10;;;;;;5070944;28;20110;-55
2021/11/02 11:47:03;;;;;;;18.05;11.80;;;12.10;87.90;;;;;;5072006;28;20024;-56
2021/11/02 11:49:29;;;;;;;20.13;11.85;;;12.20;88.00;;;;;;5076651;28;20044;-53
2021/11/02 11:51:57;;;;;;;20.50;12.32;;;12.20;88.00;;;;;;5075560;28;22882;-55
2021/11/02 11:54:27;;;;;;;19.08;12.52;;;12.20;88.10;;;;;;5074860;28;20043;-56
2021/11/02 11:57:00;;;;;;;17.08;11.63;;;12.10;88.10;;;;;;5068932;28;20045;-55
2021/11/02 11:59:27;;;;;;;18.70;12.18;;;12.20;88.20;;;;;;5069517;28;20064;-52
2021/11/02 12:02:13;;;;;;;19.38;12.70;;;12.20;88.20;;;;;;5072655;28;20143;-55
2021/11/02 12:04:51;;;;;;;21.98;14.13;;;12.20;87.90;;;;;;5071298;28;20135;-56
2021/11/02 12:07:35;;;;;;;17.45;12.07;;;12.20;88.10;;;;;;5071859;28;20429;-55
2021/11/02 12:10:06;;;;;;;21.33;14.05;;;12.20;88.20;;;;;;5077174;28;20370;-54
2021/11/02 12:12:34;;;;;;;19.15;12.52;;;12.20;88.40;;;;;;5075545;28;20032;-54
2021/11/02 12:15:06;;;;;;;20.45;13.75;;;12.20;88.40;;;;;;5072084;28;20058;-55
2021/11/02 12:17:34;;;;;;;18.35;12.57;;;12.20;88.50;;;;;;5074189;28;20039;-56
2021/11/02 12:20:13;;;;;;;17.48;12.27;;;12.20;88.60;;;;;;5072407;28;20376;-56
2021/11/02 12:22:42;;;;;;;16.85;11.57;;;12.30;88.70;;;;;;5072421;28;20115;-56
2021/11/02 12:25:11;;;;;;;21.00;13.85;;;12.30;88.50;;;;;;5064481;28;20071;-56
2021/11/02 12:27:42;;;;;;;15.88;12.02;;;12.20;88.50;;;;;;5066757;28;20074;-56
2021/11/02 12:30:14;;;;;;;16.48;11.38;;;12.20;88.30;;;;;;5065941;28;20441;-55
2021/11/02 12:32:50;;;;;;;19.05;12.88;;;12.20;88.40;;;;;;5051909;28;20036;-55
2021/11/02 12:35:34;;;;;;;16.88;12.23;;;12.10;88.50;;;;;;5064431;28;20024;-53
2021/11/02 12:38:03;;;;;;;19.70;13.32;;;12.00;88.60;;;;;;5065099;28;20034;-56
2021/11/02 12:40:31;;;;;;;19.73;13.55;;;12.00;88.90;;;;;;5067851;28;20103;-55
2021/11/02 12:42:57;;;;;;;19.58;14.85;;;11.90;89.10;;;;;;5065051;28;20064;-55
2021/11/02 12:45:26;;;;;;;18.23;13.60;;;11.90;89.50;;;;;;5063884;28;20039;-56
2021/11/02 12:47:59;;;;;;;19.83;14.88;;;11.90;89.90;;;;;;5063853;28;20128;-55
2021/11/02 12:50:29;;;;;;;21.23;14.70;;;11.80;90.00;;;;;;5069113;28;20032;-56
2021/11/02 12:52:57;;;;;;;25.00;15.90;;;11.80;90.10;;;;;;5068827;28;20046;-55
2021/11/02 12:55:30;;;;;;;22.35;14.32;;;11.80;90.30;;;;;;5064932;28;20029;-58
2021/11/02 12:58:10;;;;;;;22.40;14.80;;;11.80;90.30;;;;;;5063668;28;20116;-57
2021/11/02 13:00:52;;;;;;;23.40;15.55;;;11.80;90.80;;;;;;5068580;28;20381;-56
2021/11/02 13:03:23;;;;;;;23.52;15.57;;;11.70;90.50;;;;;;5066004;28;20494;-57
2021/11/02 13:06:02;;;;;;;30.33;19.63;;;11.70;90.60;;;;;;5065521;28;20089;-56
2021/11/02 13:08:35;;;;;;;30.77;19.83;;;11.70;90.70;;;;;;5067420;28;20056;-57
2021/11/02 13:11:10;;;;;;;30.55;19.42;;;11.80;90.80;;;;;;5064433;28;20032;-57
2021/11/02 13:13:56;;;;;;;33.10;19.60;;;11.80;90.90;;;;;;5065135;28;20063;-56
2021/11/02 13:16:22;;;;;;;32.63;21.10;;;11.80;90.90;;;;;;5065234;28;20622;-57
2021/11/02 13:18:48;;;;;;;40.05;24.08;;;11.80;91.00;;;;;;5060752;28;20028;-57
2021/11/02 13:21:23;;;;;;;44.90;23.45;;;11.80;91.10;;;;;;5067679;28;20035;-57
2021/11/02 13:24:03;;;;;;;45.20;23.95;;;11.80;91.10;;;;;;5067426;28;20088;-57
2021/11/02 13:26:30;;;;;;;41.55;24.08;;;11.70;91.20;;;;;;5068514;28;20032;-57
2021/11/02 13:29:09;;;;;;;44.38;24.23;;;11.70;91.40;;;;;;5067228;28;20050;-55
2021/11/02 13:31:35;;;;;;;45.47;26.38;;;11.70;91.50;;;;;;5064484;28;20028;-57
2021/11/02 13:34:04;;;;;;;57.83;29.50;;;11.60;91.70;;;;;;5064411;28;20377;-57
2021/11/02 13:36:30;;;;;;;46.38;26.00;;;11.60;91.90;;;;;;5067203;28;20028;-55
2021/11/02 13:39:16;;;;;;;51.13;26.40;;;11.60;92.00;;;;;;5065307;28;20106;-57
2021/11/02 13:41:50;;;;;;;41.67;24.60;;;11.60;92.10;;;;;;5066279;28;20141;-56
2021/11/02 13:44:17;;;;;;;63.45;29.38;;;11.60;92.10;;;;;;5064621;28;20044;-56
2021/11/02 13:46:49;;;;;;;52.30;28.17;;;11.60;92.40;;;;;;5060536;28;20039;-57
2021/11/02 13:49:16;;;;;;;57.92;29.60;;;11.50;92.40;;;;;;5063659;28;20693;-55
2021/11/02 13:51:42;;;;;;;74.93;34.80;;;11.50;92.50;;;;;;5065444;28;20041;-55
2021/11/02 13:54:09;;;;;;;68.78;31.27;;;11.50;92.60;;;;;;5066427;28;20024;-56
2021/11/02 13:56:37;;;;;;;57.70;29.63;;;11.50;92.60;;;;;;5064551;28;20089;-56
2021/11/02 13:59:05;;;;;;;67.55;31.02;;;11.50;92.60;;;;;;5061495;28;20094;-57
2021/11/02 14:01:51;;;;;;;60.72;29.20;;;11.50;92.70;;;;;;5066214;28;20082;-55
2021/11/02 14:04:27;;;;;;;53.95;25.77;;;11.50;92.70;;;;;;5059130;28;20055;-57
2021/11/02 14:07:07;;;;;;;61.28;29.65;;;11.50;92.80;;;;;;5063623;28;20036;-56
2021/11/02 14:09:36;;;;;;;47.80;27.35;;;11.50;92.80;;;;;;5068367;28;20036;-57
2021/11/02 14:12:44;;;;;;;45.60;25.45;;;11.50;92.90;;;;;;5071610;28;20388;-57
2021/11/02 14:15:19;;;;;;;41.55;26.05;;;11.50;93.00;;;;;;5055543;28;20072;-57
2021/11/02 14:18:10;;;;;;;43.05;25.48;;;11.50;93.00;;;;;;5070512;28;20766;-56
2021/11/02 14:20:35;;;;;;;45.63;24.65;;;11.60;93.10;;;;;;5064858;28;20156;-57
2021/11/02 14:23:03;;;;;;;44.75;23.92;;;11.50;93.10;;;;;;5061663;28;20570;-56
2021/11/02 14:25:40;;;;;;;44.63;24.98;;;11.50;93.00;;;;;;5064261;28;20113;-56
2021/11/02 14:28:07;;;;;;;44.85;24.58;;;11.60;93.00;;;;;;5067877;28;20028;-56
2021/11/02 14:30:33;;;;;;;51.75;27.27;;;11.60;93.10;;;;;;5073259;28;20043;-54
2021/11/02 14:33:09;;;;;;;41.75;24.60;;;11.60;93.10;;;;;;5074237;28;20036;-56
2021/11/02 14:35:39;;;;;;;58.70;28.27;;;11.60;93.20;;;;;;5074264;28;20040;-57
2021/11/02 14:38:11;;;;;;;43.50;24.88;;;11.60;93.20;;;;;;5077017;28;20536;-56
2021/11/02 14:40:42;;;;;;;39.13;24.02;;;11.60;93.10;;;;;;5071454;28;20027;-54
2021/11/02 14:43:13;;;;;;;48.67;27.15;;;11.60;93.20;;;;;;5066895;28;20039;-55
2021/11/02 14:45:44;;;;;;;40.33;23.90;;;11.50;93.30;;;;;;5058572;28;20059;-56
2021/11/02 14:48:25;;;;;;;57.22;28.30;;;11.60;93.30;;;;;;5065551;28;20037;-57
2021/11/02 14:50:52;;;;;;;48.03;23.27;;;11.50;93.40;;;;;;5070896;28;20467;-57
2021/11/02 14:53:30;;;;;;;38.95;24.73;;;11.50;93.40;;;;;;5069973;28;20024;-56
2021/11/02 14:55:58;;;;;;;38.38;22.38;;;11.60;93.40;;;;;;5070012;28;20718;-57
2021/11/02 14:58:42;;;;;;;39.08;22.63;;;11.60;93.50;;;;;;5068281;28;20074;-56
2021/11/02 15:01:32;;;;;;;39.67;22.95;;;11.60;93.40;;;;;;5072194;28;20028;-56
2021/11/02 15:04:05;;;;;;;37.17;23.45;;;11.60;93.30;;;;;;5071392;28;20429;-56
2021/11/02 15:06:52;;;;;;;33.47;21.40;;;11.60;93.40;;;;;;5071744;28;20181;-57
2021/11/02 15:09:20;;;;;;;34.88;21.80;;;11.60;93.40;;;;;;5051524;28;20115;-56
2021/11/02 15:11:48;;;;;;;41.63;23.98;;;11.60;93.50;;;;;;5081043;28;20348;-57
2021/11/02 15:14:20;;;;;;;44.83;24.10;;;11.70;93.50;;;;;;5078473;28;20070;-57
2021/11/02 15:16:57;;;;;;;39.40;24.02;;;11.70;93.50;;;;;;5056059;28;20135;-57
2021/11/02 15:19:25;;;;;;;41.33;26.25;;;11.80;93.40;;;;;;5082140;28;20032;-57
2021/11/02 15:22:03;;;;;;;49.17;33.10;;;11.80;93.50;;;;;;5076793;28;20062;-57
2021/11/02 15:24:33;;;;;;;46.15;27.40;;;11.80;93.50;;;;;;5076545;28;20028;-57
2021/11/02 15:27:13;;;;;;;40.78;26.40;;;11.90;93.60;;;;;;5074060;28;20115;-56
2021/11/02 15:29:47;;;;;;;47.05;28.60;;;11.90;93.40;;;;;;5073314;28;20492;-55
2021/11/02 15:32:21;;;;;;;42.53;25.88;;;11.90;93.40;;;;;;5074260;28;20031;-57
2021/11/02 15:34:50;;;;;;;37.47;22.30;;;12.00;93.30;;;;;;5071987;28;20047;-57
2021/11/02 15:37:22;;;;;;;42.13;24.35;;;12.00;93.30;;;;;;5075772;28;20032;-55
2021/11/02 15:39:58;;;;;;;;;;;12.10;93.20;;;;;;5073304;28;20053;-56
2021/11/02 15:42:27;;;;;;;34.45;20.88;;;12.00;93.10;;;;;;5070776;28;20406;-53
2021/11/02 15:44:58;;;;;;;38.92;23.48;;;12.10;93.10;;;;;;5065272;28;20036;-56
2021/11/02 15:47:25;;;;;;;36.95;21.40;;;12.10;93.00;;;;;;5070154;28;20539;-56
2021/11/02 15:49:59;;;;;;;36.97;22.27;;;12.10;93.10;;;;;;5065242;28;20089;-56
2021/11/02 15:52:27;;;;;;;37.22;22.30;;;12.10;93.20;;;;;;5061459;28;20032;-56
2021/11/02 15:54:52;;;;;;;39.75;24.20;;;12.10;93.20;;;;;;5058488;28;20062;-55
2021/11/02 15:57:18;;;;;;;35.60;22.98;;;12.20;93.30;;;;;;5062750;28;20031;-56
2021/11/02 15:59:44;;;;;;;34.97;23.50;;;12.20;93.40;;;;;;5075634;28;20823;-56
2021/11/02 16:02:09;;;;;;;35.97;23.15;;;12.30;93.40;;;;;;5065846;28;20043;-56
2021/11/02 16:04:35;;;;;;;38.10;24.13;;;12.30;93.50;;;;;;5072281;28;20035;-56
2021/11/02 16:07:10;;;;;;;33.53;21.27;;;12.40;93.40;;;;;;5067442;28;20123;-56
2021/11/02 16:09:51;;;;;;;31.63;19.42;;;12.50;93.20;;;;;;5067281;28;20086;-56
2021/11/02 16:12:18;;;;;;;32.20;19.10;;;12.50;93.00;;;;;;5070665;28;20042;-56
2021/11/02 16:14:52;;;;;;;31.27;19.90;;;12.50;92.90;;;;;;5078523;28;20293;-54
2021/11/02 16:17:20;;;;;;;37.65;22.30;;;12.60;92.70;;;;;;5084274;28;20052;-56
2021/11/02 16:19:46;;;;;;;33.45;21.52;;;12.60;92.60;;;;;;5087095;28;20081;-56
2021/11/02 16:22:12;;;;;;;33.53;20.98;;;12.60;92.90;;;;;;5085477;28;20025;-56
2021/11/02 16:24:40;;;;;;;33.70;20.25;;;12.70;92.70;;;;;;5067296;28;20026;-56
2021/11/02 16:27:22;;;;;;;33.17;20.85;;;12.70;92.60;;;;;;5092326;28;20023;-56
2021/11/02 16:29:49;;;;;;;29.48;17.70;;;12.70;92.50;;;;;;5092817;28;20020;-55
2021/11/02 16:32:23;;;;;;;32.10;20.08;;;12.80;92.50;;;;;;5082163;28;20097;-56
2021/11/02 16:34:49;;;;;;;34.13;18.58;;;12.80;92.40;;;;;;5091881;28;20028;-53
2021/11/02 16:37:32;;;;;;;26.73;16.80;;;12.80;92.20;;;;;;5093420;28;20046;-56
2021/11/02 16:40:26;;;;;;;23.08;15.18;;;12.80;92.00;;;;;;5098825;28;20020;-55
2021/11/02 16:42:56;;;;;;;17.33;13.05;;;12.80;91.70;;;;;;5077076;28;20116;-56
2021/11/02 16:45:23;;;;;;;18.55;14.35;;;12.80;91.60;;;;;;5093174;28;20080;-55
2021/11/02 16:47:56;;;;;;;19.05;15.05;;;12.80;91.50;;;;;;5084165;28;20442;-56
2021/11/02 16:50:31;;;;;;;17.73;13.48;;;12.80;91.40;;;;;;5089347;28;20930;-56
2021/11/02 16:53:27;;;;;;;18.85;14.05;;;12.90;91.30;;;;;;5080247;28;20024;-54
2021/11/02 16:55:53;;;;;;;15.35;11.73;;;12.80;91.10;;;;;;5066897;28;20044;-54
2021/11/02 16:58:19;;;;;;;15.93;12.52;;;12.80;91.10;;;;;;5089777;28;20042;-56
2021/11/02 17:00:45;;;;;;;17.20;14.40;;;12.80;90.90;;;;;;5087161;28;20123;-54
2021/11/02 17:03:14;;;;;;;16.00;12.80;;;12.80;90.90;;;;;;5086735;28;20028;-56
2021/11/02 17:05:40;;;;;;;17.05;13.23;;;12.80;90.90;;;;;;5076831;28;20052;-54
2021/11/02 17:08:09;;;;;;;16.77;13.85;;;12.80;90.80;;;;;;5085724;28;20024;-56
2021/11/02 17:10:43;;;;;;;17.45;13.52;;;12.80;90.70;;;;;;5092519;28;20038;-56
2021/11/02 17:13:20;;;;;;;19.83;15.30;;;12.70;90.60;;;;;;5099015;28;20077;-54
2021/11/02 17:16:00;;;;;;;19.73;15.40;;;12.80;90.70;;;;;;5083793;28;20143;-55
2021/11/02 17:18:41;;;;;;;16.35;14.60;;;12.70;90.60;;;;;;5088673;28;20027;-53
2021/11/02 17:21:10;;;;;;;16.25;14.20;;;12.80;90.60;;;;;;5091112;28;20098;-55
2021/11/02 17:23:42;;;;;;;16.23;13.40;;;12.80;90.60;;;;;;5082304;28;20024;-53
2021/11/02 17:26:10;;;;;;;14.93;13.15;;;12.80;90.60;;;;;;5084710;28;20073;-53
2021/11/02 17:28:40;;;;;;;15.25;13.18;;;12.80;90.70;;;;;;5089077;28;20051;-54
2021/11/02 17:31:07;;;;;;;16.48;13.73;;;12.80;90.70;;;;;;5095450;28;20486;-56
2021/11/02 17:33:34;;;;;;;11.43;10.18;;;12.80;90.50;;;;;;5096718;28;20032;-55
2021/11/02 17:36:05;;;;;;;14.48;10.15;;;12.80;90.50;;;;;;5088256;28;20044;-56
2021/11/02 17:38:32;;;;;;;10.48;9.38;;;12.80;90.30;;;;;;5091116;28;20071;-56
2021/11/02 17:41:03;;;;;;;11.05;9.13;;;12.80;90.20;;;;;;5074496;28;20031;-56
2021/11/02 17:43:31;;;;;;;12.48;10.18;;;12.80;90.00;;;;;;5088927;28;20441;-55
2021/11/02 17:45:58;;;;;;;11.98;9.77;;;12.80;89.80;;;;;;5089813;28;20028;-55
2021/11/02 17:48:24;;;;;;;12.20;9.18;;;12.80;89.90;;;;;;5091553;28;20035;-56
2021/11/02 17:50:50;;;;;;;13.85;11.73;;;12.70;89.90;;;;;;5099362;28;20038;-54
2021/11/02 17:53:17;;;;;;;13.32;11.52;;;12.70;89.80;;;;;;5098567;28;20371;-56
2021/11/02 17:55:44;;;;;;;15.50;12.63;;;12.70;89.80;;;;;;5094875;28;20085;-55
2021/11/02 17:58:09;;;;;;;14.30;11.68;;;12.70;89.80;;;;;;5104545;28;20047;-55
2021/11/02 18:00:36;;;;;;;15.05;11.82;;;12.70;89.90;;;;;;5104637;28;20083;-56
2021/11/02 18:03:02;;;;;;;15.15;12.75;;;12.70;89.90;;;;;;5085357;28;20440;-56